Accueil
METAR-TAF:

METAR-TAF

Aéroports :

Ingolstadt, Allemagne

latitude: 48-43N, longitude: 011-32E, altitude: 367 m

Observation

Le bulletin a été fait il y a 22 minutes, à 01:20 UTC
Vent 19 kt de ouest
Température 12°C
Humidité 62%
Pression 1020 hPa
Visibilité: 7000 m

METAR: ETSI 240120Z AUTO 28019KT 7000 // ////// 12/05 Q1020 ///

Heure: 03:42 (01:42 UTC)

Prévision

Le bulletin a été fait il y a 12 heures et 18 minutes, à 13:24 UTC
Prévision valable du 23 à 14 UTC au 23 à 23 UTC
Vent 15 kt de ouest avec des rafales jusqu'à 27 kt
Visibilité 10 km ou plus
Quelques nuages à une hauteur de 3000 ft
Ciel couvert à une hauteur de 5000 ft
Evoluant progressivement
du 23 à 20 UTC au 23 à 22 UTC
Vent 20 kt de ouest avec des rafales jusqu'à 30 kt
Visibilité 10 km ou plus
Ciel couvert à une hauteur de 2000 ft

TAF: ETSI 231324Z 2314/2323 27015G27KT 9999 NSW FEW030 OVC050 BECMG 2320/2322 28020G30KT 9999 NSW OVC020

Observations et prévisions météorologiques de plus de 4000 aéroports (messages METAR et TAF).

Les stations disponibles sont représentées par des disques jaunes et rouges sur la carte.

Passer la souris dessus pour voir le nom de la station.

Cliquer dessus pour voir les observations et prévisions météorologiques.

Pour changer de carte: cliquez sur les boutons verts avec une croix noire pour zoomer, sur le bouton vert avec un tiret pour effectuer un zoom arrière, ou sur les flèches vertes pour les cartes adjacentes.


METAR-TAF: